createdAt,value
2022-10-11T00:00:16.771Z,62.88
2022-10-11T00:02:43.761Z,62.66
2022-10-11T00:05:11.205Z,62.83
2022-10-11T00:07:38.924Z,62.89
2022-10-11T00:10:06.841Z,62.83
2022-10-11T00:12:34.070Z,62.82
2022-10-11T00:15:01.082Z,62.90
2022-10-11T00:17:28.142Z,62.63
2022-10-11T00:19:55.095Z,62.79
2022-10-11T00:22:22.321Z,62.63
2022-10-11T00:24:49.342Z,62.54
2022-10-11T00:27:16.383Z,62.85
2022-10-11T00:29:43.443Z,62.66
2022-10-11T00:32:10.802Z,62.99
2022-10-11T00:34:37.781Z,62.87
2022-10-11T00:37:04.942Z,62.98
2022-10-11T00:39:31.941Z,63.00
2022-10-11T00:41:59.002Z,63.25
2022-10-11T00:44:28.722Z,63.58
2022-10-11T00:47:00.878Z,63.28
2022-10-11T00:49:39.844Z,63.67
2022-10-11T00:52:09.281Z,63.57
2022-10-11T00:54:40.621Z,63.86
2022-10-11T00:57:13.243Z,63.70
2022-10-11T00:59:45.681Z,63.67
2022-10-11T01:02:13.589Z,64.12
2022-10-11T01:04:42.303Z,63.95
2022-10-11T01:07:10.509Z,64.21
2022-10-11T01:09:37.521Z,63.79
2022-10-11T01:12:12.842Z,63.67
2022-10-11T01:15:28.082Z,64.39
2022-10-11T01:18:01.142Z,63.98
2022-10-11T01:20:49.642Z,63.63
2022-10-11T01:23:41.501Z,63.87
2022-10-11T01:26:58.842Z,63.68
2022-10-11T01:29:44.346Z,63.38
2022-10-11T01:32:27.021Z,63.85
2022-10-11T01:34:58.882Z,64.10
2022-10-11T01:37:46.826Z,63.90
2022-10-11T01:40:24.200Z,64.01
2022-10-11T01:42:53.961Z,64.10
2022-10-11T01:45:22.003Z,63.93
2022-10-11T01:48:02.063Z,64.50
2022-10-11T01:50:40.722Z,64.61
2022-10-11T01:53:45.502Z,64.20
2022-10-11T01:56:56.542Z,64.48
2022-10-11T01:59:55.962Z,65.07
2022-10-11T02:02:56.682Z,64.56
2022-10-11T02:05:52.481Z,64.82
2022-10-11T02:08:22.484Z,64.91
2022-10-11T02:11:02.102Z,64.84
2022-10-11T02:13:35.842Z,65.26
2022-10-11T02:16:08.028Z,65.38
2022-10-11T02:18:41.801Z,64.91
2022-10-11T02:21:14.423Z,64.99
2022-10-11T02:23:48.324Z,65.16
2022-10-11T02:26:16.524Z,65.03
2022-10-11T02:28:46.323Z,64.70
2022-10-11T02:31:15.881Z,65.30
2022-10-11T02:33:48.302Z,65.04
2022-10-11T02:36:25.085Z,64.82
2022-10-11T02:38:56.841Z,65.06
2022-10-11T02:41:29.945Z,64.77
2022-10-11T02:44:07.281Z,65.68
2022-10-11T02:46:34.943Z,65.39
2022-10-11T02:49:02.424Z,66.05
2022-10-11T02:51:33.408Z,65.89
2022-10-11T02:54:00.581Z,65.63
2022-10-11T02:56:27.580Z,65.73
2022-10-11T02:58:54.610Z,66.12
2022-10-11T03:01:21.677Z,65.95
2022-10-11T03:03:48.761Z,66.13
2022-10-11T03:06:15.705Z,66.27
2022-10-11T03:08:42.742Z,66.17
2022-10-11T03:11:09.741Z,65.69
2022-10-11T03:13:36.762Z,65.87
2022-10-11T03:16:04.021Z,66.15
2022-10-11T03:18:31.781Z,66.02
2022-10-11T03:20:58.909Z,66.15
2022-10-11T03:23:25.962Z,66.00
2022-10-11T03:25:52.922Z,65.86
2022-10-11T03:28:20.415Z,66.08
2022-10-11T03:30:51.609Z,66.04
2022-10-11T03:33:19.562Z,66.36
2022-10-11T03:35:47.765Z,66.07
2022-10-11T03:38:16.582Z,66.11
2022-10-11T03:40:44.603Z,65.84
2022-10-11T03:43:12.403Z,66.11
2022-10-11T03:45:39.921Z,66.35
2022-10-11T03:48:07.021Z,66.42
2022-10-11T03:50:34.140Z,66.21
2022-10-11T03:53:01.281Z,66.25
2022-10-11T03:55:28.322Z,66.08
2022-10-11T03:57:55.423Z,66.18
2022-10-11T04:00:22.487Z,66.77
2022-10-11T04:02:49.481Z,66.44
2022-10-11T04:05:17.001Z,66.44
2022-10-11T04:07:44.002Z,66.69
2022-10-11T04:10:11.021Z,66.63
2022-10-11T04:12:38.862Z,66.33
2022-10-11T04:15:09.470Z,66.72
2022-10-11T04:17:36.562Z,66.75
2022-10-11T04:20:03.908Z,66.49
2022-10-11T04:22:32.067Z,66.60
2022-10-11T04:24:59.267Z,66.29
2022-10-11T04:27:29.675Z,66.22
2022-10-11T04:29:56.699Z,66.88
2022-10-11T04:32:23.677Z,67.12
2022-10-11T04:34:51.581Z,67.21
2022-10-11T04:37:19.365Z,67.63
2022-10-11T04:39:46.408Z,67.43
2022-10-11T04:42:13.455Z,67.65
2022-10-11T04:44:40.581Z,67.41
2022-10-11T04:47:07.568Z,67.63
2022-10-11T04:49:34.745Z,67.06
2022-10-11T04:52:01.792Z,67.67
2022-10-11T04:54:28.890Z,67.59
2022-10-11T04:56:56.032Z,67.42
2022-10-11T04:59:23.100Z,67.34
2022-10-11T05:01:50.226Z,67.58
2022-10-11T05:04:17.283Z,67.14
2022-10-11T05:06:44.290Z,67.30
2022-10-11T05:09:11.415Z,67.19
2022-10-11T05:11:38.390Z,67.60
2022-10-11T05:14:05.487Z,66.24
2022-10-11T05:16:32.732Z,66.94
2022-10-11T05:18:59.669Z,67.07
2022-10-11T05:21:29.498Z,67.69
2022-10-11T05:23:57.432Z,67.84
2022-10-11T05:26:26.520Z,67.63
2022-10-11T05:28:54.232Z,67.76
2022-10-11T05:31:21.652Z,67.62
2022-10-11T05:33:48.892Z,67.68
2022-10-11T05:36:16.831Z,67.82
2022-10-11T05:38:44.131Z,67.77
2022-10-11T05:41:14.032Z,67.89
2022-10-11T05:43:41.495Z,67.50
2022-10-11T05:46:08.804Z,67.92
2022-10-11T05:48:36.280Z,67.59
2022-10-11T05:51:06.184Z,67.82
2022-10-11T05:53:33.753Z,67.46
2022-10-11T05:56:00.880Z,67.47
2022-10-11T05:58:28.464Z,67.62
2022-10-11T06:00:57.081Z,67.47
2022-10-11T06:03:24.207Z,67.21
2022-10-11T06:05:55.762Z,67.50
2022-10-11T06:08:23.873Z,67.32
2022-10-11T06:10:50.829Z,67.14
2022-10-11T06:13:17.830Z,67.17
2022-10-11T06:15:44.781Z,67.31
2022-10-11T06:18:11.770Z,67.08
2022-10-11T06:20:38.813Z,66.51
2022-10-11T06:23:05.751Z,66.86
2022-10-11T06:25:32.770Z,67.03
2022-10-11T06:27:59.807Z,66.72
2022-10-11T06:30:26.769Z,66.48
2022-10-11T06:32:53.736Z,66.56
2022-10-11T06:35:20.789Z,66.42
2022-10-11T06:37:47.800Z,66.37
2022-10-11T06:40:14.828Z,66.53
2022-10-11T06:42:41.817Z,66.23
2022-10-11T06:45:09.119Z,66.34
2022-10-11T06:47:36.150Z,66.14
2022-10-11T06:50:03.378Z,65.96
2022-10-11T06:52:30.310Z,66.18
2022-10-11T06:54:57.279Z,65.60
2022-10-11T06:57:24.344Z,65.11
2022-10-11T06:59:51.408Z,65.03
2022-10-11T07:02:18.343Z,64.81
2022-10-11T07:04:45.515Z,64.09
2022-10-11T07:07:15.510Z,63.72
2022-10-11T07:09:42.640Z,63.39
2022-10-11T07:12:09.681Z,62.79
2022-10-11T07:14:36.634Z,62.65
2022-10-11T07:17:03.694Z,62.73
2022-10-11T07:19:30.846Z,62.59
2022-10-11T07:21:57.866Z,62.15
2022-10-11T07:24:25.003Z,61.87
2022-10-11T07:26:52.124Z,61.63
2022-10-11T07:29:19.133Z,61.13
2022-10-11T07:31:46.138Z,60.91
2022-10-11T07:34:13.356Z,61.16
2022-10-11T07:36:40.451Z,60.66
2022-10-11T07:39:08.539Z,59.55
2022-10-11T07:41:35.762Z,59.67
2022-10-11T07:44:03.502Z,59.24
2022-10-11T07:46:30.998Z,59.65
2022-10-11T07:48:58.335Z,59.89
2022-10-11T07:51:25.489Z,59.65
2022-10-11T07:53:57.010Z,58.53
2022-10-11T07:56:29.201Z,58.17
2022-10-11T07:59:01.710Z,56.66
2022-10-11T08:01:31.681Z,56.54
2022-10-11T08:03:59.768Z,55.52
2022-10-11T08:06:31.911Z,55.05
2022-10-11T08:09:00.999Z,54.07
2022-10-11T08:11:31.576Z,53.22
2022-10-11T08:13:59.343Z,53.67
2022-10-11T08:16:26.653Z,52.83
2022-10-11T08:18:57.057Z,52.76
2022-10-11T08:21:24.688Z,53.00
2022-10-11T08:23:51.729Z,52.54
2022-10-11T08:26:19.133Z,52.22
2022-10-11T08:28:46.238Z,51.92
2022-10-11T08:31:15.144Z,51.61
2022-10-11T08:33:42.845Z,51.48
2022-10-11T08:36:10.785Z,51.64
2022-10-11T08:38:38.228Z,51.52
2022-10-11T08:41:24.503Z,51.60
2022-10-11T08:43:58.149Z,51.69
2022-10-11T08:46:31.313Z,52.85
2022-10-11T08:49:00.206Z,53.36
2022-10-11T08:51:38.725Z,53.16
2022-10-11T08:54:08.222Z,53.18
2022-10-11T08:56:40.298Z,52.72
2022-10-11T08:59:24.283Z,52.84
2022-10-11T09:01:59.612Z,52.06
2022-10-11T09:04:26.774Z,51.65
2022-10-11T09:07:27.181Z,52.00
2022-10-11T09:10:35.840Z,52.03
2022-10-11T09:13:05.813Z,51.54
2022-10-11T09:15:48.026Z,52.29
2022-10-11T09:18:33.898Z,52.24
2022-10-11T09:21:37.573Z,51.84
2022-10-11T09:24:31.142Z,52.50
2022-10-11T09:27:50.415Z,52.09
2022-10-11T09:30:16.695Z,50.69
2022-10-11T09:32:47.590Z,50.37
2022-10-11T09:35:18.633Z,50.93
2022-10-11T09:38:02.430Z,49.87
2022-10-11T09:41:23.020Z,50.14
2022-10-11T09:43:52.087Z,50.26
2022-10-11T09:46:31.330Z,49.49
2022-10-11T09:48:59.386Z,49.00
2022-10-11T09:51:27.769Z,47.15
2022-10-11T09:54:01.067Z,47.57
2022-10-11T09:56:31.072Z,46.97
2022-10-11T09:59:16.784Z,46.57
2022-10-11T10:01:44.937Z,45.78
2022-10-11T10:04:13.246Z,45.82
2022-10-11T10:06:40.801Z,46.25
2022-10-11T10:09:21.956Z,45.10
2022-10-11T10:11:49.075Z,45.30
2022-10-11T10:14:30.522Z,45.82
2022-10-11T10:17:14.849Z,45.38
2022-10-11T10:19:49.614Z,45.00
2022-10-11T10:22:23.592Z,45.10
2022-10-11T10:24:51.934Z,45.42
2022-10-11T10:27:24.594Z,45.25
2022-10-11T10:30:09.935Z,44.36
2022-10-11T10:33:05.994Z,44.73
2022-10-11T10:35:45.743Z,44.53
2022-10-11T10:38:17.389Z,44.07
2022-10-11T10:40:58.472Z,43.59
2022-10-11T10:43:30.067Z,43.95
2022-10-11T10:46:18.216Z,43.02
2022-10-11T10:49:52.376Z,43.15
2022-10-11T10:52:27.819Z,42.60
2022-10-11T10:55:13.421Z,43.41
2022-10-11T10:58:18.480Z,42.80
2022-10-11T11:13:36.054Z,41.55
2022-10-11T11:16:18.867Z,41.84
2022-10-11T11:18:53.046Z,40.93
2022-10-11T11:21:53.492Z,41.09
2022-10-11T11:24:39.014Z,41.08
2022-10-11T11:27:14.988Z,40.55
2022-10-11T11:29:56.546Z,40.02
2022-10-11T11:32:23.513Z,39.36
2022-10-11T11:34:58.831Z,39.53
2022-10-11T11:37:32.324Z,39.70
2022-10-11T11:40:19.154Z,39.19
2022-10-11T11:42:51.773Z,39.02
2022-10-11T11:45:23.905Z,38.27
2022-10-11T11:48:02.335Z,37.39
2022-10-11T11:50:37.374Z,37.85
2022-10-11T11:53:12.606Z,37.30
2022-10-11T11:55:49.483Z,37.02
2022-10-11T11:58:25.553Z,35.98
2022-10-11T12:01:05.839Z,36.13
2022-10-11T12:03:43.100Z,36.31
2022-10-11T12:06:21.506Z,35.82
2022-10-11T12:09:02.136Z,35.64
2022-10-11T12:11:37.555Z,35.02
2022-10-11T12:14:27.854Z,34.77
2022-10-11T12:17:09.713Z,34.98
2022-10-11T12:19:38.794Z,34.07
2022-10-11T12:22:38.014Z,34.42
2022-10-11T12:25:14.958Z,34.24
2022-10-11T12:27:50.423Z,34.72
2022-10-11T12:30:48.384Z,33.76
2022-10-11T12:33:45.833Z,33.47
2022-10-11T12:36:30.956Z,33.29
2022-10-11T12:39:19.762Z,33.64
2022-10-11T12:41:49.475Z,33.48
2022-10-11T12:44:19.366Z,33.39
2022-10-11T12:46:55.196Z,33.86
2022-10-11T12:49:33.926Z,33.01
2022-10-11T12:52:25.292Z,32.53
2022-10-11T12:55:03.372Z,32.94
2022-10-11T12:58:04.504Z,32.89
2022-10-11T13:00:40.533Z,33.69
2022-10-11T13:03:58.156Z,33.34
2022-10-11T13:06:29.574Z,32.96
2022-10-11T13:09:14.035Z,33.79
2022-10-11T13:11:49.295Z,33.60
2022-10-11T13:14:20.765Z,33.56
2022-10-11T13:17:03.666Z,33.47
2022-10-11T13:19:33.287Z,33.55
2022-10-11T13:22:04.493Z,34.27
2022-10-11T13:24:40.316Z,33.96
2022-10-11T13:27:07.777Z,33.77
2022-10-11T13:29:41.421Z,32.52
2022-10-11T13:32:25.078Z,31.94
2022-10-11T13:34:58.776Z,30.70
2022-10-11T13:37:27.735Z,29.48
2022-10-11T13:39:57.457Z,29.43
2022-10-11T13:42:31.127Z,28.79
2022-10-11T13:45:00.196Z,27.97
2022-10-11T13:47:29.937Z,26.70
2022-10-11T13:50:11.181Z,26.08
2022-10-11T13:52:51.518Z,25.54
2022-10-11T13:55:28.367Z,25.96
2022-10-11T13:57:57.996Z,25.40
2022-10-11T14:00:30.357Z,25.44
2022-10-11T14:02:59.664Z,25.12
2022-10-11T14:05:40.294Z,25.55
2022-10-11T14:08:37.851Z,26.34
2022-10-11T14:11:07.039Z,27.94
2022-10-11T14:13:43.546Z,28.44
2022-10-11T14:16:11.853Z,29.52
2022-10-11T14:18:57.918Z,30.56
2022-10-11T14:21:46.089Z,31.91
2022-10-11T14:24:14.793Z,32.88
2022-10-11T14:26:44.685Z,33.96
2022-10-11T14:29:23.813Z,35.08
2022-10-11T14:31:51.257Z,35.46
2022-10-11T14:34:23.282Z,36.06
2022-10-11T14:36:50.910Z,36.93
2022-10-11T14:39:20.950Z,37.62
2022-10-11T14:41:47.948Z,38.03
2022-10-11T14:44:16.942Z,38.08
2022-10-11T14:46:45.232Z,38.59
2022-10-11T14:49:21.644Z,39.00
2022-10-11T14:51:50.034Z,39.78
2022-10-11T14:54:25.177Z,41.04
2022-10-11T14:56:53.639Z,41.27
2022-10-11T14:59:23.647Z,42.09
2022-10-11T15:01:54.595Z,41.41
2022-10-11T15:04:22.920Z,41.71
2022-10-11T15:06:51.262Z,42.33
2022-10-11T15:09:21.078Z,42.85
2022-10-11T15:11:49.275Z,43.52
2022-10-11T15:14:16.425Z,42.78
2022-10-11T15:16:43.485Z,44.17
2022-10-11T15:19:15.943Z,45.30
2022-10-11T15:21:43.068Z,45.20
2022-10-11T15:24:10.028Z,45.02
2022-10-11T15:26:37.356Z,44.90
2022-10-11T15:29:04.886Z,45.56
2022-10-11T15:31:31.893Z,45.85
2022-10-11T15:33:59.813Z,45.81
2022-10-11T15:36:26.770Z,45.76
2022-10-11T15:38:53.715Z,45.51
2022-10-11T15:41:20.833Z,45.66
2022-10-11T15:43:49.036Z,45.92
2022-10-11T15:46:19.916Z,46.17
2022-10-11T15:48:47.712Z,47.04
2022-10-11T15:51:15.902Z,47.14
2022-10-11T15:53:42.874Z,46.75
2022-10-11T15:56:15.485Z,46.99
2022-10-11T15:58:43.141Z,47.84
2022-10-11T16:01:17.546Z,48.70
2022-10-11T16:03:45.894Z,48.59
2022-10-11T16:06:13.512Z,49.36
2022-10-11T16:08:40.736Z,50.15
2022-10-11T16:11:09.493Z,50.72
2022-10-11T16:13:36.977Z,51.09
2022-10-11T16:16:06.245Z,51.54
2022-10-11T16:18:35.741Z,51.59
2022-10-11T16:21:09.650Z,52.22
2022-10-11T16:23:39.015Z,52.26
2022-10-11T16:26:09.284Z,52.31
2022-10-11T16:28:37.911Z,52.49
2022-10-11T16:31:14.511Z,52.83
2022-10-11T16:33:47.952Z,53.10
2022-10-11T16:36:32.950Z,53.20
2022-10-11T16:39:01.413Z,53.07
2022-10-11T16:41:28.328Z,52.26
2022-10-11T16:43:56.265Z,52.21
2022-10-11T16:46:23.306Z,52.22
2022-10-11T16:48:50.599Z,52.87
2022-10-11T16:51:17.573Z,52.42
2022-10-11T16:53:44.505Z,52.93
2022-10-11T16:56:12.105Z,53.77
2022-10-11T16:58:39.129Z,54.31
2022-10-11T17:01:10.878Z,54.40
2022-10-11T17:03:38.541Z,54.63
2022-10-11T17:06:07.134Z,54.41
2022-10-11T17:08:35.477Z,55.21
2022-10-11T17:11:03.124Z,55.89
2022-10-11T17:13:30.495Z,56.25
2022-10-11T17:15:57.443Z,57.29
2022-10-11T17:18:24.922Z,57.92
2022-10-11T17:21:01.404Z,58.76
2022-10-11T17:23:28.825Z,59.04
2022-10-11T17:25:55.872Z,60.06
2022-10-11T17:28:22.983Z,60.75
2022-10-11T17:30:57.494Z,60.85
2022-10-11T17:33:26.630Z,60.37
2022-10-11T17:35:59.161Z,60.25
2022-10-11T17:38:29.570Z,60.12
2022-10-11T17:41:05.622Z,60.94
2022-10-11T17:43:32.894Z,61.16
2022-10-11T17:46:02.199Z,61.61
2022-10-11T17:48:29.498Z,61.47
2022-10-11T17:50:56.571Z,62.30
2022-10-11T17:53:23.865Z,62.18
2022-10-11T17:55:51.355Z,62.75
2022-10-11T17:58:18.654Z,62.33
2022-10-11T18:00:45.690Z,63.21
2022-10-11T18:03:12.715Z,62.83
2022-10-11T18:05:41.282Z,63.30
2022-10-11T18:08:09.128Z,63.43
2022-10-11T18:10:37.575Z,63.29
2022-10-11T18:13:06.826Z,64.13
2022-10-11T18:15:34.223Z,64.00
2022-10-11T18:18:01.362Z,64.16
2022-10-11T18:20:28.373Z,64.03
2022-10-11T18:22:55.414Z,64.39
2022-10-11T18:25:22.492Z,64.18
2022-10-11T18:27:50.635Z,64.28
2022-10-11T18:30:17.594Z,64.07
2022-10-11T18:32:44.643Z,64.38
2022-10-11T18:35:11.686Z,64.40
2022-10-11T18:37:38.753Z,64.55
2022-10-11T18:40:06.154Z,64.80
2022-10-11T18:42:33.278Z,64.67
2022-10-11T18:45:00.290Z,64.67
2022-10-11T18:47:28.039Z,64.73
2022-10-11T18:49:55.125Z,64.60
2022-10-11T18:52:22.195Z,64.78
2022-10-11T18:54:49.464Z,64.54
2022-10-11T18:57:16.463Z,64.71
2022-10-11T18:59:43.470Z,64.63
2022-10-11T19:02:12.130Z,65.08
2022-10-11T19:04:39.965Z,64.86
2022-10-11T19:07:07.073Z,64.58
2022-10-11T19:09:34.377Z,64.31
2022-10-11T19:12:01.653Z,64.75
2022-10-11T19:14:30.993Z,64.76
2022-10-11T19:17:01.191Z,65.54
2022-10-11T19:19:29.877Z,64.91
2022-10-11T19:21:57.394Z,64.65
2022-10-11T19:24:26.735Z,65.23
2022-10-11T19:26:57.355Z,64.73
2022-10-11T19:29:29.422Z,64.62
2022-10-11T19:31:58.995Z,63.75
2022-10-11T19:34:27.825Z,63.61
2022-10-11T19:36:55.672Z,62.77
2022-10-11T19:39:25.952Z,63.53
2022-10-11T19:41:54.091Z,63.69
2022-10-11T19:44:21.117Z,63.81
2022-10-11T19:46:52.458Z,63.92
2022-10-11T19:49:22.929Z,63.92
2022-10-11T19:51:50.520Z,63.78
2022-10-11T19:54:17.973Z,63.39
2022-10-11T19:56:45.192Z,63.38
2022-10-11T19:59:13.274Z,63.72
2022-10-11T20:01:41.389Z,63.60
2022-10-11T20:04:27.413Z,63.83
2022-10-11T20:06:54.851Z,63.40
2022-10-11T20:09:29.637Z,63.20
2022-10-11T20:11:57.238Z,63.31
2022-10-11T20:14:24.435Z,62.85
2022-10-11T20:16:51.559Z,62.79
2022-10-11T20:19:19.003Z,63.15
2022-10-11T20:21:46.132Z,63.27
2022-10-11T20:24:13.321Z,63.37
2022-10-11T20:26:40.515Z,62.88
2022-10-11T20:29:07.533Z,63.26
2022-10-11T20:31:38.649Z,63.08
2022-10-11T20:34:07.655Z,63.49
2022-10-11T20:36:36.375Z,63.35
2022-10-11T20:39:05.394Z,63.30
2022-10-11T20:41:40.026Z,63.63
2022-10-11T20:44:08.475Z,63.50
2022-10-11T20:46:38.065Z,63.79
2022-10-11T20:49:08.173Z,63.74
2022-10-11T20:51:37.814Z,63.49
2022-10-11T20:54:05.299Z,63.59
2022-10-11T20:56:32.662Z,63.86
2022-10-11T20:58:59.806Z,63.94
2022-10-11T21:01:35.391Z,63.75
2022-10-11T21:04:04.686Z,63.66
2022-10-11T21:06:33.002Z,64.18
2022-10-11T21:09:00.331Z,64.32
2022-10-11T21:11:29.032Z,63.94
2022-10-11T21:13:57.388Z,63.72
2022-10-11T21:16:24.725Z,64.49
2022-10-11T21:18:53.227Z,64.49
2022-10-11T21:21:20.986Z,64.41
2022-10-11T21:23:48.015Z,64.46
2022-10-11T21:26:18.217Z,64.66
2022-10-11T21:28:46.587Z,64.53
2022-10-11T21:31:17.165Z,64.58
2022-10-11T21:33:45.158Z,64.61
2022-10-11T21:36:16.193Z,64.94
2022-10-11T21:38:43.695Z,64.98
2022-10-11T21:41:13.466Z,64.68
2022-10-11T21:43:40.679Z,64.40
2022-10-11T21:46:10.536Z,64.53
2022-10-11T21:48:37.631Z,64.64
2022-10-11T21:51:04.707Z,64.67
2022-10-11T21:53:31.921Z,64.63
2022-10-11T21:56:00.753Z,65.09
2022-10-11T21:58:28.573Z,64.96
2022-10-11T22:00:55.605Z,64.53
2022-10-11T22:03:22.630Z,64.40
2022-10-11T22:05:49.656Z,64.41
2022-10-11T22:08:16.669Z,64.35
2022-10-11T22:10:53.254Z,64.56
2022-10-11T22:13:20.237Z,64.29
2022-10-11T22:15:47.261Z,64.51
2022-10-11T22:18:14.255Z,64.06
2022-10-11T22:20:41.518Z,64.36
2022-10-11T22:23:08.507Z,64.13
2022-10-11T22:25:36.433Z,63.56
2022-10-11T22:28:04.933Z,63.62
2022-10-11T22:30:32.223Z,64.18
2022-10-11T22:32:59.248Z,63.72
2022-10-11T22:35:26.314Z,63.85
2022-10-11T22:37:53.454Z,63.56
2022-10-11T22:40:21.336Z,63.75
2022-10-11T22:42:48.397Z,63.44
2022-10-11T22:45:15.514Z,63.83
2022-10-11T22:47:42.474Z,63.95
2022-10-11T22:50:09.906Z,63.92
2022-10-11T22:52:36.906Z,64.28
2022-10-11T22:55:04.053Z,64.28
2022-10-11T22:57:31.268Z,63.68
2022-10-11T22:59:58.239Z,63.96
2022-10-11T23:02:25.212Z,63.85
2022-10-11T23:04:54.053Z,64.34
2022-10-11T23:07:20.984Z,64.59
2022-10-11T23:09:47.913Z,64.33
2022-10-11T23:12:15.023Z,64.20
2022-10-11T23:14:42.051Z,64.32
2022-10-11T23:17:08.994Z,64.24
2022-10-11T23:19:37.261Z,64.14
2022-10-11T23:22:04.104Z,64.02
2022-10-11T23:24:31.063Z,64.18
2022-10-11T23:26:58.123Z,64.62
2022-10-11T23:29:25.143Z,64.63
2022-10-11T23:31:52.103Z,64.26
2022-10-11T23:34:19.143Z,64.36
2022-10-11T23:36:46.206Z,63.94
2022-10-11T23:39:13.390Z,63.88
2022-10-11T23:41:40.363Z,63.87
2022-10-11T23:44:07.703Z,63.83
2022-10-11T23:46:34.725Z,63.66
2022-10-11T23:49:01.763Z,63.35
2022-10-11T23:51:28.783Z,63.31
2022-10-11T23:53:55.985Z,63.57
2022-10-11T23:56:23.185Z,63.23
2022-10-11T23:58:50.284Z,62.95
